createdAt,value
2018-02-24T00:00:35.281Z,16.12
2018-02-24T00:01:35.287Z,16.11
2018-02-24T00:02:35.290Z,16.12
2018-02-24T00:03:35.286Z,16.11
2018-02-24T00:04:35.276Z,16.08
2018-02-24T00:05:35.275Z,16.07
2018-02-24T00:06:35.279Z,16.06
2018-02-24T00:07:35.309Z,16.08
2018-02-24T00:08:35.283Z,16.07
2018-02-24T00:09:35.292Z,16.08
2018-02-24T00:10:35.275Z,16.06
2018-02-24T00:11:35.299Z,16.05
2018-02-24T00:12:35.286Z,16.05
2018-02-24T00:13:35.283Z,16.02
2018-02-24T00:14:35.658Z,16
2018-02-24T00:15:35.292Z,16.02
2018-02-24T00:16:35.272Z,16.02
2018-02-24T00:17:35.298Z,16.02
2018-02-24T00:18:35.283Z,16.03
2018-02-24T00:19:35.266Z,16.02
2018-02-24T00:20:35.286Z,16
2018-02-24T00:21:35.286Z,15.99
2018-02-24T00:22:35.273Z,15.99
2018-02-24T00:23:35.280Z,15.98
2018-02-24T00:24:35.286Z,16
2018-02-24T00:25:35.265Z,15.97
2018-02-24T00:26:35.552Z,15.98
2018-02-24T00:27:35.300Z,15.98
2018-02-24T00:28:35.263Z,15.96
2018-02-24T00:29:35.262Z,15.99
2018-02-24T00:30:35.315Z,15.95
2018-02-24T00:31:35.287Z,15.95
2018-02-24T00:32:35.277Z,15.95
2018-02-24T00:33:35.263Z,15.96
2018-02-24T00:34:35.285Z,15.96
2018-02-24T00:35:35.272Z,15.93
2018-02-24T00:36:35.268Z,15.91
2018-02-24T00:37:35.268Z,15.93
2018-02-24T00:38:35.266Z,15.93
2018-02-24T00:39:35.280Z,15.93
2018-02-24T00:40:35.266Z,15.93
2018-02-24T00:41:35.284Z,15.91
2018-02-24T00:42:35.264Z,15.89
2018-02-24T00:43:35.274Z,15.91
2018-02-24T00:44:35.281Z,15.89
2018-02-24T00:45:35.260Z,15.89
2018-02-24T00:46:35.268Z,15.89
2018-02-24T00:47:35.257Z,15.91
2018-02-24T00:48:35.268Z,15.88
2018-02-24T00:49:35.274Z,15.88
2018-02-24T00:50:35.247Z,15.86
2018-02-24T00:51:35.264Z,15.89
2018-02-24T00:52:35.268Z,15.85
2018-02-24T00:53:35.262Z,15.86
2018-02-24T00:54:35.633Z,15.83
2018-02-24T00:55:35.253Z,15.86
2018-02-24T00:56:35.275Z,15.88
2018-02-24T00:57:35.361Z,15.85
2018-02-24T00:58:35.264Z,15.85
2018-02-24T00:59:35.274Z,15.86
2018-02-24T01:00:35.255Z,15.83
2018-02-24T01:01:35.279Z,15.85
2018-02-24T01:02:35.262Z,15.85
2018-02-24T01:03:35.275Z,15.85
2018-02-24T01:04:35.297Z,15.84
2018-02-24T01:05:35.688Z,15.83
2018-02-24T01:06:35.263Z,15.85
2018-02-24T01:07:35.250Z,15.83
2018-02-24T01:08:35.274Z,15.81
2018-02-24T01:09:35.274Z,15.82
2018-02-24T01:10:35.266Z,15.82
2018-02-24T01:11:35.271Z,15.83
2018-02-24T01:12:35.255Z,15.81
2018-02-24T01:13:35.359Z,15.82
2018-02-24T01:14:35.283Z,15.8
2018-02-24T01:15:35.258Z,15.78
2018-02-24T01:16:35.265Z,15.82
2018-02-24T01:17:35.314Z,15.77
2018-02-24T01:18:35.254Z,15.78
2018-02-24T01:19:35.339Z,15.76
2018-02-24T01:20:35.260Z,15.78
2018-02-24T01:21:35.248Z,15.78
2018-02-24T01:22:35.258Z,15.77
2018-02-24T01:23:35.261Z,15.75
2018-02-24T01:24:35.270Z,15.75
2018-02-24T01:25:35.245Z,15.76
2018-02-24T01:26:35.279Z,15.76
2018-02-24T01:27:35.251Z,15.77
2018-02-24T01:28:35.257Z,15.74
2018-02-24T01:29:35.254Z,15.74
2018-02-24T01:30:35.251Z,15.75
2018-02-24T01:31:35.301Z,15.74
2018-02-24T01:32:35.239Z,15.73
2018-02-24T01:33:35.246Z,15.76
2018-02-24T01:34:35.252Z,15.73
2018-02-24T01:35:35.254Z,15.73
2018-02-24T01:36:35.239Z,15.73
2018-02-24T01:37:35.308Z,15.74
2018-02-24T01:38:35.262Z,15.73
2018-02-24T01:39:35.237Z,15.75
2018-02-24T01:40:35.261Z,15.72
2018-02-24T01:41:35.244Z,15.73
2018-02-24T01:42:35.255Z,15.7
2018-02-24T01:43:35.252Z,15.71
2018-02-24T01:44:35.238Z,15.69
2018-02-24T01:45:35.267Z,15.71
2018-02-24T01:46:35.260Z,15.71
2018-02-24T01:47:35.247Z,15.7
2018-02-24T01:48:35.236Z,15.72
2018-02-24T01:49:35.246Z,15.67
2018-02-24T01:50:35.234Z,15.7
2018-02-24T01:51:35.276Z,15.68
2018-02-24T01:52:35.242Z,15.69
2018-02-24T01:53:35.250Z,15.67
2018-02-24T01:54:35.369Z,15.68
2018-02-24T01:55:35.323Z,15.67
2018-02-24T01:56:35.506Z,15.69
2018-02-24T01:57:35.245Z,15.67
2018-02-24T01:58:35.232Z,15.66
2018-02-24T01:59:35.234Z,15.65
2018-02-24T02:00:35.244Z,15.65
2018-02-24T02:01:35.268Z,15.65
2018-02-24T02:02:35.244Z,15.63
2018-02-24T02:03:35.251Z,15.65
2018-02-24T02:04:35.296Z,15.63
2018-02-24T02:05:35.236Z,15.66
2018-02-24T02:06:35.245Z,15.63
2018-02-24T02:07:35.231Z,15.61
2018-02-24T02:08:35.236Z,15.62
2018-02-24T02:09:35.222Z,15.62
2018-02-24T02:10:35.256Z,15.6
2018-02-24T02:11:35.237Z,15.6
2018-02-24T02:12:35.253Z,15.61
2018-02-24T02:13:35.257Z,15.59
2018-02-24T02:14:35.233Z,15.57
2018-02-24T02:15:35.234Z,15.56
2018-02-24T02:16:35.225Z,15.6
2018-02-24T02:17:35.236Z,15.58
2018-02-24T02:18:35.243Z,15.57
2018-02-24T02:19:35.231Z,15.55
2018-02-24T02:20:35.229Z,15.57
2018-02-24T02:21:35.237Z,15.54
2018-02-24T02:22:35.520Z,15.56
2018-02-24T02:23:35.247Z,15.57
2018-02-24T02:24:35.226Z,15.53
2018-02-24T02:25:35.225Z,15.55
2018-02-24T02:26:35.248Z,15.56
2018-02-24T02:27:35.248Z,15.55
2018-02-24T02:28:35.243Z,15.57
2018-02-24T02:29:35.245Z,15.57
2018-02-24T02:30:35.222Z,15.55
2018-02-24T02:31:35.242Z,15.54
2018-02-24T02:32:35.280Z,15.57
2018-02-24T02:33:35.237Z,15.55
2018-02-24T02:34:35.255Z,15.53
2018-02-24T02:35:35.230Z,15.56
2018-02-24T02:36:35.227Z,15.53
2018-02-24T02:37:35.327Z,15.57
2018-02-24T02:38:35.243Z,15.55
2018-02-24T02:39:35.230Z,15.53
2018-02-24T02:40:35.220Z,15.53
2018-02-24T02:41:35.238Z,15.54
2018-02-24T02:42:35.233Z,15.53
2018-02-24T02:43:35.260Z,15.53
2018-02-24T02:44:35.252Z,15.51
2018-02-24T02:45:35.227Z,15.51
2018-02-24T02:46:35.219Z,15.49
2018-02-24T02:47:35.247Z,15.51
2018-02-24T02:48:35.518Z,15.51
2018-02-24T02:49:35.230Z,15.51
2018-02-24T02:50:35.237Z,15.47
2018-02-24T02:51:35.235Z,15.46
2018-02-24T02:52:35.248Z,15.45
2018-02-24T02:53:35.282Z,15.45
2018-02-24T02:54:35.219Z,15.46
2018-02-24T02:55:35.231Z,15.45
2018-02-24T02:56:35.231Z,15.46
2018-02-24T02:57:35.234Z,15.47
2018-02-24T02:58:35.256Z,15.47
2018-02-24T02:59:35.227Z,15.45
2018-02-24T03:00:35.223Z,15.46
2018-02-24T03:01:35.217Z,15.47
2018-02-24T03:02:35.200Z,15.44
2018-02-24T03:03:35.331Z,15.46
2018-02-24T03:04:35.229Z,15.49
2018-02-24T03:05:35.220Z,15.43
2018-02-24T03:06:35.240Z,15.45
2018-02-24T03:07:35.222Z,15.44
2018-02-24T03:08:35.253Z,15.43
2018-02-24T03:09:35.203Z,15.45
2018-02-24T03:10:35.217Z,15.45
2018-02-24T03:11:35.231Z,15.45
2018-02-24T03:12:35.225Z,15.43
2018-02-24T03:13:35.247Z,15.42
2018-02-24T03:14:35.223Z,15.45
2018-02-24T03:15:35.252Z,15.46
2018-02-24T03:16:35.223Z,15.43
2018-02-24T03:17:35.242Z,15.44
2018-02-24T03:18:35.207Z,15.39
2018-02-24T03:19:35.423Z,15.4
2018-02-24T03:20:35.210Z,15.42
2018-02-24T03:21:35.218Z,15.37
2018-02-24T03:22:35.202Z,15.4
2018-02-24T03:23:35.205Z,15.4
2018-02-24T03:24:35.216Z,15.41
2018-02-24T03:25:35.206Z,15.41
2018-02-24T03:26:35.208Z,15.39
2018-02-24T03:27:35.206Z,15.39
2018-02-24T03:28:35.201Z,15.39
2018-02-24T03:29:35.241Z,15.38
2018-02-24T03:30:35.239Z,15.38
2018-02-24T03:31:35.610Z,15.39
2018-02-24T03:32:35.225Z,15.36
2018-02-24T03:33:35.210Z,15.37
2018-02-24T03:34:35.232Z,15.4
2018-02-24T03:35:35.225Z,15.39
2018-02-24T03:36:35.204Z,15.39
2018-02-24T03:37:35.186Z,15.38
2018-02-24T03:38:35.190Z,15.36
2018-02-24T03:39:35.238Z,15.37
2018-02-24T03:40:35.230Z,15.38
2018-02-24T03:41:35.202Z,15.33
2018-02-24T03:42:35.214Z,15.33
2018-02-24T03:43:35.199Z,15.34
2018-02-24T03:44:35.243Z,15.33
2018-02-24T03:45:35.205Z,15.33
2018-02-24T03:46:35.479Z,15.31
2018-02-24T03:47:35.210Z,15.34
2018-02-24T03:48:35.202Z,15.32
2018-02-24T03:49:35.196Z,15.31
2018-02-24T03:50:35.204Z,15.31
2018-02-24T03:51:35.226Z,15.34
2018-02-24T03:52:35.187Z,15.36
2018-02-24T03:53:35.197Z,15.34
2018-02-24T03:54:35.201Z,15.32
2018-02-24T03:55:35.285Z,15.32
2018-02-24T03:56:35.320Z,15.32
2018-02-24T03:57:35.204Z,15.3
2018-02-24T03:58:35.204Z,15.3
2018-02-24T03:59:35.208Z,15.31
2018-02-24T04:00:35.445Z,15.31
2018-02-24T04:01:35.183Z,15.32
2018-02-24T04:02:35.196Z,15.31
2018-02-24T04:03:35.209Z,15.33
2018-02-24T04:04:35.206Z,15.31
2018-02-24T04:05:35.226Z,15.34
2018-02-24T04:06:35.294Z,15.3
2018-02-24T04:07:35.193Z,15.28
2018-02-24T04:08:35.196Z,15.29
2018-02-24T04:09:35.177Z,15.31
2018-02-24T04:10:35.235Z,15.29
2018-02-24T04:11:35.198Z,15.3
2018-02-24T04:12:35.181Z,15.3
2018-02-24T04:13:35.193Z,15.3
2018-02-24T04:14:35.288Z,15.3
2018-02-24T04:15:35.227Z,15.3
2018-02-24T04:16:35.467Z,15.26
2018-02-24T04:17:35.200Z,15.26
2018-02-24T04:18:35.168Z,15.28
2018-02-24T04:19:35.211Z,15.28
2018-02-24T04:20:35.221Z,15.29
2018-02-24T04:21:35.206Z,15.27
2018-02-24T04:22:35.288Z,15.26
2018-02-24T04:23:35.213Z,15.27
2018-02-24T04:24:35.182Z,15.24
2018-02-24T04:25:35.235Z,15.26
2018-02-24T04:26:35.169Z,15.22
2018-02-24T04:27:35.185Z,15.25
2018-02-24T04:28:35.201Z,15.24
2018-02-24T04:29:35.192Z,15.24
2018-02-24T04:30:35.225Z,15.26
2018-02-24T04:31:35.184Z,15.21
2018-02-24T04:32:35.188Z,15.25
2018-02-24T04:33:35.185Z,15.23
2018-02-24T04:34:35.193Z,15.22
2018-02-24T04:35:35.210Z,15.24
2018-02-24T04:36:35.222Z,15.24
2018-02-24T04:37:35.228Z,15.24
2018-02-24T04:38:35.187Z,15.21
2018-02-24T04:39:35.181Z,15.19
2018-02-24T04:40:35.253Z,15.19
2018-02-24T04:41:35.179Z,15.21
2018-02-24T04:42:35.194Z,15.21
2018-02-24T04:43:35.198Z,15.18
2018-02-24T04:44:35.220Z,15.19
2018-02-24T04:45:35.165Z,15.21
2018-02-24T04:46:35.189Z,15.21
2018-02-24T04:47:35.175Z,15.16
2018-02-24T04:48:35.190Z,15.18
2018-02-24T04:49:35.175Z,15.19
2018-02-24T04:50:35.195Z,15.19
2018-02-24T04:51:35.183Z,15.22
2018-02-24T04:52:35.175Z,15.23
2018-02-24T04:53:35.221Z,15.24
2018-02-24T04:54:35.208Z,15.25
2018-02-24T04:55:35.181Z,15.28
2018-02-24T04:56:35.173Z,15.28
2018-02-24T04:57:35.209Z,15.3
2018-02-24T04:58:35.218Z,15.3
2018-02-24T04:59:35.181Z,15.28
2018-02-24T05:00:35.168Z,15.28
2018-02-24T05:01:35.188Z,15.29
2018-02-24T05:02:35.200Z,15.28
2018-02-24T05:03:35.190Z,15.27
2018-02-24T05:04:35.157Z,15.27
2018-02-24T05:05:35.179Z,15.27
2018-02-24T05:06:35.179Z,15.27
2018-02-24T05:07:35.180Z,15.3
2018-02-24T05:08:35.180Z,15.32
2018-02-24T05:09:35.181Z,15.31
2018-02-24T05:10:35.219Z,15.31
2018-02-24T05:11:35.172Z,15.31
2018-02-24T05:12:35.164Z,15.31
2018-02-24T05:13:35.186Z,15.33
2018-02-24T05:14:35.181Z,15.32
2018-02-24T05:15:35.186Z,15.34
2018-02-24T05:16:35.172Z,15.34
2018-02-24T05:17:35.170Z,15.37
2018-02-24T05:18:35.169Z,15.37
2018-02-24T05:19:35.168Z,15.4
2018-02-24T05:20:35.214Z,15.42
2018-02-24T05:21:35.181Z,15.43
2018-02-24T05:22:35.162Z,15.43
2018-02-24T05:23:35.174Z,15.46
2018-02-24T05:24:35.165Z,15.47
2018-02-24T05:25:35.175Z,15.46
2018-02-24T05:26:35.162Z,15.48
2018-02-24T05:27:35.493Z,15.49
2018-02-24T05:28:35.185Z,15.53
2018-02-24T05:29:35.137Z,15.53
2018-02-24T05:30:35.166Z,15.54
2018-02-24T05:31:35.164Z,15.57
2018-02-24T05:32:35.202Z,15.56
2018-02-24T05:33:35.157Z,15.6
2018-02-24T05:34:35.149Z,15.62
2018-02-24T05:35:35.151Z,15.63
2018-02-24T05:36:35.173Z,15.66
2018-02-24T05:37:35.158Z,15.68
2018-02-24T05:38:35.166Z,15.71
2018-02-24T05:39:35.154Z,15.71
2018-02-24T05:40:35.156Z,15.73
2018-02-24T05:41:35.162Z,15.74
2018-02-24T05:42:35.168Z,15.8
2018-02-24T05:43:35.428Z,15.81
2018-02-24T05:44:35.173Z,15.83
2018-02-24T05:45:35.173Z,15.85
2018-02-24T05:46:35.159Z,15.86
2018-02-24T05:47:35.153Z,15.88
2018-02-24T05:48:35.185Z,15.89
2018-02-24T05:49:35.173Z,15.93
2018-02-24T05:50:35.157Z,15.96
2018-02-24T05:51:35.215Z,15.96
2018-02-24T05:52:35.152Z,15.99
2018-02-24T05:53:35.136Z,16.01
2018-02-24T05:54:35.173Z,16.02
2018-02-24T05:55:35.167Z,16.02
2018-02-24T05:56:35.244Z,16.07
2018-02-24T05:57:35.493Z,16.07
2018-02-24T05:58:35.188Z,16.1
2018-02-24T05:59:35.187Z,16.1
2018-02-24T06:00:35.164Z,16.12
2018-02-24T06:01:35.161Z,16.15
2018-02-24T06:02:35.142Z,16.17
2018-02-24T06:03:35.167Z,16.16
2018-02-24T06:04:35.424Z,16.18
2018-02-24T06:05:35.156Z,16.2
2018-02-24T06:06:35.152Z,16.21
2018-02-24T06:07:35.439Z,16.22
2018-02-24T06:08:35.146Z,16.25
2018-02-24T06:09:35.185Z,16.27
2018-02-24T06:10:35.174Z,16.29
2018-02-24T06:11:35.143Z,16.28
2018-02-24T06:12:35.153Z,16.31
2018-02-24T06:13:35.154Z,16.32
2018-02-24T06:14:35.169Z,16.33
2018-02-24T06:15:35.137Z,16.33
2018-02-24T06:16:35.139Z,16.36
2018-02-24T06:17:35.136Z,16.35
2018-02-24T06:18:35.162Z,16.35
2018-02-24T06:19:35.168Z,16.39
2018-02-24T06:20:35.152Z,16.4
2018-02-24T06:21:35.148Z,16.42
2018-02-24T06:22:35.147Z,16.42
2018-02-24T06:23:35.136Z,16.45
2018-02-24T06:24:35.171Z,16.46
2018-02-24T06:25:35.164Z,16.47
2018-02-24T06:26:35.156Z,16.46
2018-02-24T06:27:35.119Z,16.48
2018-02-24T06:28:35.132Z,16.48
2018-02-24T06:29:35.160Z,16.51
2018-02-24T06:30:35.135Z,16.51
2018-02-24T06:31:35.149Z,16.52
2018-02-24T06:32:35.160Z,16.56
2018-02-24T06:33:35.156Z,16.56
2018-02-24T06:34:35.411Z,16.55
2018-02-24T06:35:35.149Z,16.57
2018-02-24T06:36:35.131Z,16.57
2018-02-24T06:37:35.145Z,16.57
2018-02-24T06:38:35.129Z,16.59
2018-02-24T06:39:35.429Z,16.6
2018-02-24T06:40:35.185Z,16.61
2018-02-24T06:41:35.139Z,16.63
2018-02-24T06:42:35.146Z,16.66
2018-02-24T06:43:35.135Z,16.66
2018-02-24T06:44:35.175Z,16.7
2018-02-24T06:45:35.181Z,16.69
2018-02-24T06:46:35.123Z,16.71
2018-02-24T06:47:35.133Z,16.73
2018-02-24T06:48:35.137Z,16.74
2018-02-24T06:49:35.173Z,16.73
2018-02-24T06:50:35.125Z,16.74
2018-02-24T06:51:35.123Z,16.78
2018-02-24T06:52:34.993Z,16.78
2018-02-24T06:53:35.155Z,16.8
2018-02-24T06:54:35.160Z,16.82
2018-02-24T06:55:35.132Z,16.81
2018-02-24T06:56:35.129Z,16.85
2018-02-24T06:57:35.143Z,16.86
2018-02-24T06:58:35.128Z,16.88
2018-02-24T06:59:35.431Z,16.9
2018-02-24T07:00:35.127Z,16.9
2018-02-24T07:01:35.144Z,16.9
2018-02-24T07:02:35.132Z,16.91
2018-02-24T07:03:35.136Z,16.92
2018-02-24T07:04:35.165Z,16.95
2018-02-24T07:05:35.141Z,16.98
2018-02-24T07:06:35.125Z,16.95
2018-02-24T07:07:35.121Z,16.95
2018-02-24T07:08:35.116Z,16.98
2018-02-24T07:09:35.154Z,16.98
2018-02-24T07:10:35.139Z,16.99
2018-02-24T07:11:35.112Z,16.98
2018-02-24T07:12:35.114Z,16.95
2018-02-24T07:13:35.124Z,16.95
2018-02-24T07:14:35.204Z,17
2018-02-24T07:15:35.136Z,16.99
2018-02-24T07:16:35.120Z,16.99
2018-02-24T07:17:35.129Z,16.99
2018-02-24T07:18:35.114Z,16.99
2018-02-24T07:19:35.390Z,16.98
2018-02-24T07:20:35.158Z,17.03
2018-02-24T07:21:35.131Z,17.02
2018-02-24T07:22:35.128Z,17.02
2018-02-24T07:23:35.220Z,17.01
2018-02-24T07:24:35.142Z,17.02
2018-02-24T07:25:35.137Z,17.03
2018-02-24T07:26:35.121Z,17.03
2018-02-24T07:27:35.121Z,17.04
2018-02-24T07:28:35.124Z,17.05
2018-02-24T07:29:35.151Z,17.03
2018-02-24T07:30:35.116Z,17.06
2018-02-24T07:31:35.224Z,17.05
2018-02-24T07:32:35.116Z,17.07
2018-02-24T07:33:35.133Z,17.06
2018-02-24T07:34:35.154Z,17.07
2018-02-24T07:35:35.127Z,17.08
2018-02-24T07:36:35.124Z,17.09
2018-02-24T07:37:35.116Z,17.09
2018-02-24T07:38:35.389Z,17.11
2018-02-24T07:39:35.118Z,17.11
2018-02-24T07:40:35.112Z,17.11
2018-02-24T07:41:35.130Z,17.09
2018-02-24T07:42:35.152Z,17.13
2018-02-24T07:43:35.153Z,17.1
2018-02-24T07:44:35.123Z,17.14
2018-02-24T07:45:35.109Z,17.15
2018-02-24T07:46:35.138Z,17.13
2018-02-24T07:47:35.116Z,17.15
2018-02-24T07:48:35.134Z,17.15
2018-02-24T07:49:35.195Z,17.15
2018-02-24T07:50:35.387Z,17.17
2018-02-24T07:51:35.111Z,17.16
2018-02-24T07:52:35.114Z,17.17
2018-02-24T07:53:35.144Z,17.17
2018-02-24T07:54:35.107Z,17.19
2018-02-24T07:55:35.140Z,17.18
2018-02-24T07:56:35.131Z,17.18
2018-02-24T07:57:35.225Z,17.19
2018-02-24T07:58:35.118Z,17.19
2018-02-24T07:59:35.114Z,17.21
2018-02-24T08:00:35.110Z,17.2
2018-02-24T08:01:35.128Z,17.21
2018-02-24T08:02:35.105Z,17.22
2018-02-24T08:03:35.114Z,17.25
2018-02-24T08:04:35.106Z,17.23
2018-02-24T08:05:35.128Z,17.21
2018-02-24T08:06:35.150Z,17.23
2018-02-24T08:07:35.117Z,17.23
2018-02-24T08:08:35.117Z,17.24
2018-02-24T08:09:35.100Z,17.23
2018-02-24T08:10:35.392Z,17.26
2018-02-24T08:11:35.125Z,17.26
2018-02-24T08:12:35.106Z,17.26
2018-02-24T08:13:35.114Z,17.31
2018-02-24T08:14:35.113Z,17.36
2018-02-24T08:15:35.121Z,17.35
2018-02-24T08:16:35.104Z,17.36
2018-02-24T08:17:35.409Z,17.37
2018-02-24T08:18:35.110Z,17.38
2018-02-24T08:19:35.101Z,17.39
2018-02-24T08:20:35.088Z,17.4
2018-02-24T08:21:35.115Z,17.43
2018-02-24T08:22:35.096Z,17.45
2018-02-24T08:23:35.095Z,17.45
2018-02-24T08:24:35.095Z,17.46
2018-02-24T08:25:35.380Z,17.47
2018-02-24T08:26:35.121Z,17.47
2018-02-24T08:27:35.114Z,17.49
2018-02-24T08:28:35.094Z,17.49
2018-02-24T08:29:35.093Z,17.5
2018-02-24T08:30:35.125Z,17.5
2018-02-24T08:31:35.139Z,17.52
2018-02-24T08:32:35.087Z,17.52
2018-02-24T08:33:35.117Z,17.51
2018-02-24T08:34:35.104Z,17.53
2018-02-24T08:35:35.094Z,17.54
2018-02-24T08:36:35.112Z,17.53
2018-02-24T08:37:35.232Z,17.54
2018-02-24T08:38:35.216Z,17.56
2018-02-24T08:39:35.198Z,17.58
2018-02-24T08:40:35.147Z,17.6
2018-02-24T08:41:35.122Z,17.59
2018-02-24T08:42:35.103Z,17.59
2018-02-24T08:43:35.114Z,17.59
2018-02-24T08:44:35.096Z,17.6
2018-02-24T08:45:35.111Z,17.62
2018-02-24T08:46:35.115Z,17.64
2018-02-24T08:47:35.111Z,17.63
2018-02-24T08:48:35.079Z,17.63
2018-02-24T08:49:35.092Z,17.63
2018-02-24T08:50:35.089Z,17.65
2018-02-24T08:51:35.118Z,17.65
2018-02-24T08:52:35.094Z,17.65
2018-02-24T08:53:35.091Z,17.68
2018-02-24T08:54:35.101Z,17.68
2018-02-24T08:55:35.082Z,17.68
2018-02-24T08:56:35.130Z,17.7
2018-02-24T08:57:35.103Z,17.69
2018-02-24T08:58:35.097Z,17.69
2018-02-24T08:59:35.110Z,17.72
2018-02-24T09:00:35.093Z,17.7
2018-02-24T09:01:35.089Z,17.73
2018-02-24T09:02:35.120Z,17.77
2018-02-24T09:03:35.090Z,17.75
2018-02-24T09:04:35.114Z,17.76
2018-02-24T09:05:35.075Z,17.79
2018-02-24T09:06:35.094Z,17.79
2018-02-24T09:07:35.328Z,17.79
2018-02-24T09:08:35.077Z,17.76
2018-02-24T09:09:35.087Z,17.77
2018-02-24T09:10:35.092Z,17.77
2018-02-24T09:11:35.104Z,17.78
2018-02-24T09:12:35.089Z,17.75
2018-02-24T09:13:35.239Z,17.73
2018-02-24T09:14:35.117Z,17.75
2018-02-24T09:15:35.098Z,17.75
2018-02-24T09:16:35.082Z,17.74
2018-02-24T09:17:35.112Z,17.75
2018-02-24T09:18:35.094Z,17.75
2018-02-24T09:19:35.085Z,17.75
2018-02-24T09:20:35.086Z,17.73
2018-02-24T09:21:35.073Z,17.73
2018-02-24T09:22:35.114Z,17.72
2018-02-24T09:23:35.108Z,17.75
2018-02-24T09:24:35.093Z,17.73
2018-02-24T09:25:35.085Z,17.73
2018-02-24T09:26:35.068Z,17.7
2018-02-24T09:27:35.116Z,17.73
2018-02-24T09:28:35.094Z,17.74
2018-02-24T09:29:35.085Z,17.73
2018-02-24T09:30:35.086Z,17.73
2018-02-24T09:31:35.082Z,17.74
2018-02-24T09:32:35.121Z,17.72
2018-02-24T09:33:35.092Z,17.74
2018-02-24T09:34:35.078Z,17.73
2018-02-24T09:35:35.086Z,17.7
2018-02-24T09:36:35.107Z,17.74
2018-02-24T09:37:35.334Z,17.73
2018-02-24T09:38:35.102Z,17.73
2018-02-24T09:39:35.069Z,17.73
2018-02-24T09:40:35.076Z,17.7
2018-02-24T09:41:35.064Z,17.73
2018-02-24T09:42:35.114Z,17.72
2018-02-24T09:43:35.126Z,17.73
2018-02-24T09:44:35.076Z,17.75
2018-02-24T09:45:35.073Z,17.72
2018-02-24T09:46:35.061Z,17.73
2018-02-24T09:47:35.109Z,17.73
2018-02-24T09:48:35.087Z,17.74
2018-02-24T09:49:35.078Z,17.76
2018-02-24T09:50:35.365Z,17.73
2018-02-24T09:51:35.087Z,17.72
2018-02-24T09:52:35.085Z,17.74
2018-02-24T09:53:35.036Z,17.76
2018-02-24T09:54:35.072Z,17.74
2018-02-24T09:55:35.107Z,17.76
2018-02-24T09:56:35.083Z,17.75
2018-02-24T09:57:35.064Z,17.75
2018-02-24T09:58:35.182Z,17.76
2018-02-24T09:59:35.144Z,17.76
2018-02-24T10:00:35.112Z,17.74
2018-02-24T10:01:35.083Z,17.77
2018-02-24T10:02:35.071Z,17.78
2018-02-24T10:03:35.080Z,17.78
2018-02-24T10:04:35.100Z,17.77
2018-02-24T10:05:35.092Z,17.77
2018-02-24T10:06:35.067Z,17.78
2018-02-24T10:07:35.067Z,17.77
2018-02-24T10:08:35.093Z,17.77
2018-02-24T10:09:35.071Z,17.76
2018-02-24T10:10:35.088Z,17.76
2018-02-24T10:11:35.062Z,17.79
2018-02-24T10:12:35.062Z,17.78
2018-02-24T10:13:35.056Z,17.79
2018-02-24T10:14:35.068Z,17.8
2018-02-24T10:15:35.113Z,17.77
2018-02-24T10:16:35.073Z,17.8
2018-02-24T10:17:35.063Z,17.81
2018-02-24T10:18:35.055Z,17.81
2018-02-24T10:19:35.074Z,17.8
2018-02-24T10:20:35.113Z,17.8
2018-02-24T10:21:35.079Z,17.82
2018-02-24T10:22:35.058Z,17.8
2018-02-24T10:23:35.088Z,17.8
2018-02-24T10:24:35.079Z,17.8
2018-02-24T10:25:35.099Z,17.81
2018-02-24T10:26:35.069Z,17.83
2018-02-24T10:27:35.063Z,17.81
2018-02-24T10:28:35.075Z,17.82
2018-02-24T10:29:35.064Z,17.82
2018-02-24T10:30:35.104Z,17.83
2018-02-24T10:31:35.080Z,17.82
2018-02-24T10:32:35.066Z,17.87
2018-02-24T10:33:35.054Z,17.83
2018-02-24T10:34:35.102Z,17.83
2018-02-24T10:35:35.088Z,17.83
2018-02-24T10:36:35.048Z,17.83
2018-02-24T10:37:35.109Z,17.85
2018-02-24T10:38:35.070Z,17.83
2018-02-24T10:39:35.075Z,17.84
2018-02-24T10:40:35.154Z,17.84
2018-02-24T10:41:35.062Z,17.85
2018-02-24T10:42:35.104Z,17.87
2018-02-24T10:43:35.059Z,17.85
2018-02-24T10:44:35.052Z,17.88
2018-02-24T10:45:35.187Z,17.87
2018-02-24T10:46:35.052Z,17.88
2018-02-24T10:47:35.061Z,17.87
2018-02-24T10:48:35.379Z,17.88
2018-02-24T10:49:35.070Z,17.88
2018-02-24T10:50:35.056Z,17.92
2018-02-24T10:51:35.053Z,17.91
2018-02-24T10:52:35.086Z,17.89
2018-02-24T10:53:35.100Z,17.89
2018-02-24T10:54:35.059Z,17.9
2018-02-24T10:55:35.056Z,17.89
2018-02-24T10:56:35.149Z,17.9
2018-02-24T10:57:35.084Z,17.91
2018-02-24T10:58:35.060Z,17.9
2018-02-24T10:59:35.059Z,17.9
2018-02-24T11:00:35.063Z,17.93
2018-02-24T11:01:35.054Z,17.92
2018-02-24T11:02:35.050Z,17.94
2018-02-24T11:03:35.083Z,17.95
2018-02-24T11:04:35.042Z,17.95
2018-02-24T11:05:35.143Z,17.97
2018-02-24T11:06:35.048Z,17.96
2018-02-24T11:07:35.050Z,17.96
2018-02-24T11:08:35.141Z,17.95
2018-02-24T11:09:35.068Z,17.99
2018-02-24T11:10:35.056Z,17.99
2018-02-24T11:11:35.051Z,17.99
2018-02-24T11:12:35.156Z,17.97
2018-02-24T11:13:35.053Z,17.93
2018-02-24T11:14:35.325Z,17.89
2018-02-24T11:15:35.044Z,17.91
2018-02-24T11:16:35.051Z,17.91
2018-02-24T11:17:35.043Z,17.94
2018-02-24T11:18:35.049Z,17.94
2018-02-24T11:19:35.100Z,17.95
2018-02-24T11:20:35.055Z,17.95
2018-02-24T11:21:35.069Z,17.98
2018-02-24T11:22:35.035Z,18.02
2018-02-24T11:23:35.043Z,18.03
2018-02-24T11:24:35.052Z,18.05
2018-02-24T11:25:35.066Z,18.05
2018-02-24T11:26:35.052Z,18.07
2018-02-24T11:27:35.056Z,18.1
2018-02-24T11:28:35.047Z,18.11
2018-02-24T11:29:35.046Z,18.11
2018-02-24T11:30:35.322Z,18.11
2018-02-24T11:31:35.033Z,18.14
2018-02-24T11:32:35.037Z,18.15
2018-02-24T11:33:35.041Z,18.17
2018-02-24T11:34:35.057Z,18.15
2018-02-24T11:35:35.078Z,18.18
2018-02-24T11:36:35.035Z,18.19
2018-02-24T11:37:35.042Z,18.21
2018-02-24T11:38:35.033Z,18.2
2018-02-24T11:39:35.037Z,18.21
2018-02-24T11:40:35.101Z,18.2
2018-02-24T11:41:35.046Z,18.24
2018-02-24T11:42:35.294Z,18.22
2018-02-24T11:43:35.385Z,18.24
2018-02-24T11:44:35.032Z,18.23
2018-02-24T11:45:35.034Z,18.26
2018-02-24T11:46:35.330Z,18.23
2018-02-24T11:47:35.055Z,18.26
2018-02-24T11:48:35.032Z,18.25
2018-02-24T11:49:35.029Z,18.26
2018-02-24T11:50:35.061Z,18.26
2018-02-24T11:51:35.030Z,18.26
2018-02-24T11:52:35.064Z,18.26
2018-02-24T11:53:35.031Z,18.3
2018-02-24T11:54:24.572Z,18.51
2018-02-24T11:55:33.278Z,18.65
2018-02-24T11:56:32.803Z,18.69
2018-02-24T11:57:32.811Z,18.73
2018-02-24T11:58:32.858Z,18.8
2018-02-24T11:59:32.819Z,18.82
2018-02-24T12:00:18.717Z,18.84
2018-02-24T12:01:17.971Z,18.86
2018-02-24T12:02:17.986Z,18.89
2018-02-24T12:03:17.980Z,18.93
2018-02-24T12:04:17.973Z,18.94
2018-02-24T12:05:17.984Z,18.94
2018-02-24T12:06:17.964Z,18.96
2018-02-24T12:07:17.972Z,18.95
2018-02-24T12:08:17.964Z,18.98
2018-02-24T12:09:17.967Z,18.98
2018-02-24T12:10:17.974Z,18.99
2018-02-24T12:11:18.012Z,19.01
2018-02-24T12:11:58.344Z,18.99
2018-02-24T12:12:57.608Z,19.01
2018-02-24T12:13:57.608Z,19.02
2018-02-24T12:14:57.648Z,19.05
2018-02-24T12:16:14.053Z,19.05
2018-02-24T12:16:56.194Z,19.06
2018-02-24T12:17:55.834Z,19.06
2018-02-24T12:18:55.808Z,19.08
2018-02-24T12:19:55.812Z,19.09
2018-02-24T12:20:55.807Z,19.1
2018-02-24T12:21:55.848Z,19.1
2018-02-24T12:22:55.823Z,19.08
2018-02-24T12:23:55.808Z,19.09
2018-02-24T12:24:55.807Z,19.02
2018-02-24T12:25:55.831Z,19.03
2018-02-24T12:26:55.823Z,19.01
2018-02-24T12:27:55.842Z,19.02
2018-02-24T12:28:55.813Z,18.99
2018-02-24T12:29:55.841Z,18.98
2018-02-24T12:30:55.822Z,19
2018-02-24T12:31:55.834Z,18.98
2018-02-24T12:32:55.848Z,18.97
2018-02-24T12:33:55.831Z,18.97
2018-02-24T12:34:55.807Z,18.97
2018-02-24T12:35:55.808Z,18.95
2018-02-24T12:36:55.794Z,18.95
2018-02-24T12:37:55.792Z,18.97
2018-02-24T12:38:55.812Z,18.93
2018-02-24T12:39:55.797Z,18.94
2018-02-24T12:40:55.826Z,18.96
2018-02-24T12:41:55.844Z,18.93
2018-02-24T12:42:55.889Z,18.94
2018-02-24T12:43:55.806Z,18.92
2018-02-24T12:44:55.793Z,18.93
2018-02-24T12:45:55.807Z,18.94
2018-02-24T12:46:55.805Z,18.91
2018-02-24T12:47:55.800Z,18.92
2018-02-24T12:48:55.820Z,18.91
2018-02-24T12:49:56.814Z,18.92
2018-02-24T12:50:56.045Z,18.93
2018-02-24T12:51:55.787Z,18.92
2018-02-24T12:52:55.798Z,18.89
2018-02-24T12:53:55.806Z,18.89
2018-02-24T12:54:55.787Z,18.88